Time;durP1;ratioP1;P1;durP2;ratioP2;P2;SDS_P1;SDS_P2;PMS_P1;PMS_P2;Temp;Humidity;BMP_temperature;BMP_pressure;BME280_temperature;BME280_humidity;BME280_pressure;Samples;Min_cycle;Max_cycle;Signal;HPM_P1;HPM_P2
2024/04/06 00:01:46;;;;;;;2.00;1.35;;;14.60;99.90;;;;;;4947860;28;20046;-71
2024/04/06 00:04:12;;;;;;;1.70;1.10;;;14.50;99.90;;;;;;4949339;28;20027;-70
2024/04/06 00:06:38;;;;;;;1.25;1.10;;;14.50;99.90;;;;;;4950445;28;20038;-71
2024/04/06 00:09:04;;;;;;;7.22;2.00;;;14.50;99.90;;;;;;4947454;28;20038;-71
2024/04/06 00:11:30;;;;;;;2.22;1.40;;;14.50;99.90;;;;;;4948613;28;20350;-71
2024/04/06 00:13:56;;;;;;;3.70;1.30;;;14.40;99.90;;;;;;4948665;28;20039;-71
2024/04/06 00:16:21;;;;;;;3.90;1.25;;;14.40;99.90;;;;;;4948838;28;20031;-70
2024/04/06 00:18:47;;;;;;;1.42;1.33;;;14.40;99.90;;;;;;4948839;28;20260;-70
2024/04/06 00:21:13;;;;;;;1.25;1.10;;;14.40;99.90;;;;;;4949622;28;20045;-71
2024/04/06 00:23:39;;;;;;;1.10;0.98;;;14.40;99.90;;;;;;4950108;28;20082;-71
2024/04/06 00:26:05;;;;;;;2.22;1.20;;;14.30;99.90;;;;;;4948745;28;20393;-71
2024/04/06 00:28:34;;;;;;;2.13;1.50;;;14.40;99.90;;;;;;4949634;28;20023;-71
2024/04/06 00:31:00;;;;;;;4.32;1.38;;;14.30;99.90;;;;;;4948439;28;20103;-71
2024/04/06 00:33:25;;;;;;;3.33;1.50;;;14.30;99.90;;;;;;4949575;28;20038;-71
2024/04/06 00:35:51;;;;;;;3.08;1.20;;;14.40;99.90;;;;;;4948015;28;20047;-71
2024/04/06 00:38:17;;;;;;;1.70;1.27;;;14.40;99.90;;;;;;4948928;28;20039;-71
2024/04/06 00:40:43;;;;;;;1.40;1.13;;;14.30;99.90;;;;;;4948799;28;20038;-70
2024/04/06 00:43:09;;;;;;;3.45;1.33;;;14.40;99.90;;;;;;4950566;28;20050;-71
2024/04/06 00:45:34;;;;;;;2.13;1.05;;;14.30;99.90;;;;;;4949643;28;20031;-70
2024/04/06 00:48:00;;;;;;;2.40;1.30;;;14.30;99.90;;;;;;4949726;28;20118;-71
2024/04/06 00:50:26;;;;;;;1.08;1.00;;;14.30;99.90;;;;;;4949033;28;20038;-71
2024/04/06 00:52:52;;;;;;;0.82;0.82;;;14.30;99.90;;;;;;4948746;28;20529;-71
2024/04/06 00:55:17;;;;;;;1.23;1.10;;;14.20;99.90;;;;;;4949425;28;20032;-71
2024/04/06 00:57:43;;;;;;;3.30;1.67;;;14.20;99.90;;;;;;4948061;28;20031;-70
2024/04/06 01:00:10;;;;;;;3.53;1.20;;;14.30;99.90;;;;;;4948068;28;20082;-71
2024/04/06 01:02:37;;;;;;;3.20;1.20;;;14.30;99.90;;;;;;4951063;28;20029;-70
2024/04/06 01:05:03;;;;;;;1.63;1.30;;;14.20;99.90;;;;;;4948417;28;20038;-71
2024/04/06 01:07:28;;;;;;;1.33;1.23;;;14.30;99.90;;;;;;4950729;28;20760;-71
2024/04/06 01:09:54;;;;;;;3.10;1.40;;;14.30;99.90;;;;;;4946320;28;20070;-71
2024/04/06 01:12:20;;;;;;;2.88;1.20;;;14.20;99.90;;;;;;4949932;28;20054;-71
2024/04/06 01:14:46;;;;;;;5.05;1.15;;;14.30;99.90;;;;;;4951604;28;20174;-71
2024/04/06 01:17:13;;;;;;;1.80;1.20;;;14.30;99.90;;;;;;4949824;28;20031;-71
2024/04/06 01:19:39;;;;;;;4.80;1.50;;;14.30;99.90;;;;;;4949757;28;20038;-71
2024/04/06 01:22:05;;;;;;;3.30;1.20;;;14.30;99.90;;;;;;4947469;28;20529;-71
2024/04/06 01:24:31;;;;;;;2.97;1.13;;;14.30;99.90;;;;;;4950087;28;20034;-70
2024/04/06 01:26:59;;;;;;;3.53;1.10;;;14.30;99.90;;;;;;4949020;28;20043;-70
2024/04/06 01:29:27;;;;;;;0.90;0.85;;;14.30;99.90;;;;;;4946048;28;20039;-71
2024/04/06 01:31:53;;;;;;;1.38;1.00;;;14.20;99.90;;;;;;4948702;28;20094;-70
2024/04/06 01:34:19;;;;;;;3.95;1.58;;;14.20;99.90;;;;;;4948813;28;20035;-70
2024/04/06 01:36:45;;;;;;;3.55;1.17;;;14.30;99.90;;;;;;4945204;28;20038;-70
2024/04/06 01:39:14;;;;;;;1.48;0.88;;;14.20;99.90;;;;;;4949608;28;20498;-71
2024/04/06 01:41:44;;;;;;;2.88;1.10;;;14.20;99.90;;;;;;4948403;28;20043;-71
2024/04/06 01:44:10;;;;;;;1.30;1.00;;;14.20;99.90;;;;;;4950085;28;20082;-71
2024/04/06 01:46:35;;;;;;;3.22;1.25;;;14.20;99.90;;;;;;4949096;28;20447;-71
2024/04/06 01:49:01;;;;;;;3.33;1.02;;;14.30;99.90;;;;;;4949139;28;20410;-71
2024/04/06 01:51:27;;;;;;;2.53;1.40;;;14.30;99.90;;;;;;4950066;28;20034;-71
2024/04/06 01:53:53;;;;;;;3.58;0.95;;;14.30;99.90;;;;;;4949304;28;20028;-71
2024/04/06 01:56:19;;;;;;;3.67;1.60;;;14.20;99.90;;;;;;4950201;28;20031;-71
2024/04/06 01:58:47;;;;;;;1.45;1.10;;;14.20;99.90;;;;;;4949235;28;20035;-71
2024/04/06 02:01:14;;;;;;;1.35;0.93;;;14.30;99.90;;;;;;4949347;28;20323;-71
2024/04/06 02:03:40;;;;;;;3.08;1.05;;;14.30;99.90;;;;;;4949648;28;20042;-71
2024/04/06 02:06:09;;;;;;;1.15;0.93;;;14.20;99.90;;;;;;4948223;28;20045;-71
2024/04/06 02:08:38;;;;;;;2.05;0.90;;;14.20;99.90;;;;;;4949460;28;20081;-71
2024/04/06 02:11:04;;;;;;;1.30;1.00;;;14.20;99.90;;;;;;4946151;28;20039;-71
2024/04/06 02:13:31;;;;;;;1.17;1.00;;;14.20;99.90;;;;;;4946849;28;20042;-71
2024/04/06 02:15:57;;;;;;;1.45;0.90;;;14.20;99.90;;;;;;4946000;28;20174;-71
2024/04/06 02:18:23;;;;;;;2.25;0.90;;;14.20;99.90;;;;;;4948228;28;20146;-71
2024/04/06 02:20:49;;;;;;;4.20;1.10;;;14.20;99.90;;;;;;4946394;28;20042;-71
2024/04/06 02:23:15;;;;;;;2.53;0.90;;;14.10;99.90;;;;;;4948223;28;20070;-71
2024/04/06 02:25:41;;;;;;;1.73;0.93;;;14.10;99.90;;;;;;4946816;28;20107;-71
2024/04/06 02:28:06;;;;;;;2.53;1.20;;;14.10;99.90;;;;;;4948580;28;20027;-71
2024/04/06 02:30:32;;;;;;;1.48;0.90;;;14.10;99.90;;;;;;4948026;28;20035;-71
2024/04/06 02:32:58;;;;;;;1.63;0.90;;;14.10;99.90;;;;;;4947400;28;20648;-71
2024/04/06 02:35:24;;;;;;;1.85;1.08;;;14.00;99.90;;;;;;4947831;28;20487;-71
2024/04/06 02:37:51;;;;;;;1.15;0.80;;;14.00;99.90;;;;;;4948127;28;20044;-70
2024/04/06 02:40:17;;;;;;;0.80;0.80;;;14.00;99.90;;;;;;4947294;28;20829;-71
2024/04/06 02:42:43;;;;;;;3.15;1.20;;;14.00;99.90;;;;;;4946103;28;20032;-70
2024/04/06 02:45:09;;;;;;;1.33;0.98;;;14.00;99.90;;;;;;4947154;28;20031;-71
2024/04/06 02:47:34;;;;;;;1.85;1.02;;;14.00;99.90;;;;;;4948263;28;20035;-71
2024/04/06 02:50:00;;;;;;;2.58;1.13;;;14.00;99.90;;;;;;4947042;28;20031;-71
2024/04/06 02:52:26;;;;;;;1.13;0.90;;;14.00;99.90;;;;;;4947795;28;20047;-71
2024/04/06 02:54:52;;;;;;;1.50;1.10;;;14.00;99.90;;;;;;4947656;28;20043;-71
2024/04/06 02:57:18;;;;;;;1.15;1.05;;;14.00;99.90;;;;;;4947667;28;20051;-70
2024/04/06 02:59:45;;;;;;;1.58;0.95;;;14.00;99.90;;;;;;4947117;28;20122;-71
2024/04/06 03:02:13;;;;;;;4.63;1.77;;;14.00;99.90;;;;;;4947829;28;20047;-71
2024/04/06 03:04:40;;;;;;;2.67;1.10;;;14.00;99.90;;;;;;4951965;28;20169;-71
2024/04/06 03:07:06;;;;;;;2.65;0.98;;;14.00;99.90;;;;;;4954028;28;20034;-71
2024/04/06 03:09:35;;;;;;;3.45;1.13;;;14.00;99.90;;;;;;4952690;28;20043;-71
2024/04/06 03:12:02;;;;;;;1.02;0.85;;;14.00;99.90;;;;;;4951679;28;20043;-71
2024/04/06 03:14:28;;;;;;;2.47;1.13;;;14.00;99.90;;;;;;4954376;28;20545;-71
2024/04/06 03:16:54;;;;;;;3.50;1.00;;;14.00;99.90;;;;;;4952503;28;20042;-71
2024/04/06 03:19:20;;;;;;;1.77;0.98;;;14.00;99.90;;;;;;4954692;28;20023;-71
2024/04/06 03:21:46;;;;;;;1.35;0.95;;;14.00;99.90;;;;;;4951883;28;20039;-70
2024/04/06 03:24:11;;;;;;;3.25;1.08;;;13.90;99.90;;;;;;4954327;28;20118;-71
2024/04/06 03:26:37;;;;;;;2.83;1.60;;;13.90;99.90;;;;;;4952974;28;20134;-71
2024/04/06 03:29:03;;;;;;;1.55;1.10;;;13.90;99.90;;;;;;4953118;28;20035;-70
2024/04/06 03:31:29;;;;;;;2.28;0.85;;;13.90;99.90;;;;;;4953164;28;20026;-70
2024/04/06 03:33:55;;;;;;;1.83;0.90;;;13.90;99.90;;;;;;4953469;28;20030;-70
2024/04/06 03:36:20;;;;;;;3.85;1.05;;;13.90;99.90;;;;;;4954646;28;20458;-71
2024/04/06 03:38:46;;;;;;;0.70;0.70;;;13.90;99.90;;;;;;4952853;28;20042;-71
2024/04/06 03:41:12;;;;;;;1.50;0.93;;;13.80;99.90;;;;;;4951974;28;20031;-71
2024/04/06 03:43:37;;;;;;;0.75;0.75;;;13.80;99.90;;;;;;4953551;28;20114;-69
2024/04/06 03:46:03;;;;;;;1.33;0.90;;;13.80;99.90;;;;;;4951908;28;20369;-69
2024/04/06 03:48:30;;;;;;;1.73;1.08;;;13.80;99.90;;;;;;4952349;28;20491;-69
2024/04/06 03:50:56;;;;;;;1.98;0.80;;;13.80;99.90;;;;;;4952874;28;20047;-69
2024/04/06 03:53:33;;;;;;;2.75;1.00;;;13.70;99.90;;;;;;4952248;28;20030;-69
2024/04/06 03:55:59;;;;;;;1.75;1.00;;;13.70;99.90;;;;;;4951511;28;20042;-69
2024/04/06 03:58:25;;;;;;;1.30;0.95;;;13.70;99.90;;;;;;4952631;28;20046;-69
2024/04/06 04:00:51;;;;;;;1.48;0.95;;;13.70;99.90;;;;;;4952729;28;20031;-69
2024/04/06 04:03:17;;;;;;;3.08;1.10;;;13.70;99.90;;;;;;4952249;28;20036;-69
2024/04/06 04:05:43;;;;;;;2.00;1.30;;;13.60;99.90;;;;;;4952574;28;20134;-69
2024/04/06 04:08:09;;;;;;;4.00;1.30;;;13.60;99.90;;;;;;4952057;28;20051;-69
2024/04/06 04:10:38;;;;;;;1.67;1.10;;;13.50;99.90;;;;;;4952347;28;20034;-68
2024/04/06 04:13:09;;;;;;;2.17;1.02;;;13.50;99.90;;;;;;4953773;28;20090;-69
2024/04/06 04:15:39;;;;;;;1.55;1.00;;;13.50;99.90;;;;;;4949471;28;20113;-69
2024/04/06 04:18:06;;;;;;;3.33;1.15;;;13.40;99.90;;;;;;4950286;28;20062;-69
2024/04/06 04:20:32;;;;;;;2.67;1.30;;;13.40;99.90;;;;;;4947868;28;20031;-68
2024/04/06 04:23:00;;;;;;;1.40;1.00;;;13.40;99.90;;;;;;4947704;28;20043;-68
2024/04/06 04:25:29;;;;;;;1.20;0.75;;;13.30;99.90;;;;;;4950510;28;20035;-69
2024/04/06 04:27:59;;;;;;;1.80;1.15;;;13.30;99.90;;;;;;4948413;28;20030;-68
2024/04/06 04:30:26;;;;;;;1.33;0.90;;;13.30;99.90;;;;;;4950309;28;20510;-68
2024/04/06 04:32:52;;;;;;;2.90;1.08;;;13.20;99.90;;;;;;4948254;28;20557;-69
2024/04/06 04:35:19;;;;;;;3.22;1.23;;;13.20;99.90;;;;;;4951157;28;20042;-69
2024/04/06 04:37:44;;;;;;;2.15;0.95;;;13.20;99.90;;;;;;4948914;28;20035;-68
2024/04/06 04:40:10;;;;;;;3.20;1.08;;;13.20;99.90;;;;;;4949442;28;20046;-68
2024/04/06 04:42:37;;;;;;;2.50;1.10;;;13.30;99.90;;;;;;4949707;28;20031;-68
2024/04/06 04:45:11;;;;;;;1.77;1.15;;;13.30;99.90;;;;;;4950564;28;20166;-68
2024/04/06 04:47:37;;;;;;;1.98;1.50;;;13.30;99.90;;;;;;4946796;28;20122;-68
2024/04/06 04:50:03;;;;;;;1.67;1.17;;;13.30;99.90;;;;;;4950253;28;20136;-68
2024/04/06 04:52:30;;;;;;;2.28;1.35;;;13.40;99.90;;;;;;4950402;28;20034;-68
2024/04/06 04:54:55;;;;;;;2.28;0.93;;;13.40;99.90;;;;;;4950458;28;20126;-70
2024/04/06 04:57:21;;;;;;;1.95;1.23;;;13.50;99.90;;;;;;4949892;28;20034;-69
2024/04/06 04:59:47;;;;;;;1.08;0.98;;;13.50;99.90;;;;;;4949436;28;20120;-69
2024/04/06 05:02:14;;;;;;;1.92;1.20;;;13.60;99.90;;;;;;4947799;28;20059;-69
2024/04/06 05:04:40;;;;;;;1.63;1.10;;;13.60;99.90;;;;;;4950140;28;20582;-70
2024/04/06 05:07:05;;;;;;;1.30;1.02;;;13.70;99.90;;;;;;4947008;28;20038;-69
2024/04/06 05:09:31;;;;;;;2.13;1.20;;;13.80;99.90;;;;;;4947902;28;20045;-71
2024/04/06 05:11:57;;;;;;;2.25;1.40;;;13.80;99.90;;;;;;4948338;28;20063;-71
2024/04/06 05:14:23;;;;;;;1.92;1.17;;;13.80;99.90;;;;;;4949699;28;20686;-67
2024/04/06 05:16:49;;;;;;;2.70;1.30;;;13.90;99.90;;;;;;4949713;28;20045;-71
2024/04/06 05:19:14;;;;;;;2.17;1.30;;;14.00;99.90;;;;;;4949500;28;20524;-68
2024/04/06 05:21:40;;;;;;;1.20;1.10;;;14.10;99.90;;;;;;4948603;28;20163;-69
2024/04/06 05:24:06;;;;;;;1.58;1.05;;;14.10;99.90;;;;;;4949657;28;20038;-67
2024/04/06 05:26:32;;;;;;;2.85;1.30;;;14.20;99.90;;;;;;4948131;28;20904;-66
2024/04/06 05:28:58;;;;;;;1.25;1.00;;;14.20;99.90;;;;;;4948364;28;20041;-67
2024/04/06 05:31:24;;;;;;;2.58;1.38;;;14.30;99.90;;;;;;4948443;28;20039;-67
2024/04/06 05:33:49;;;;;;;1.20;1.10;;;14.30;99.90;;;;;;4947870;28;20544;-68
2024/04/06 05:36:16;;;;;;;3.17;1.20;;;14.40;99.90;;;;;;4947218;28;20035;-68
2024/04/06 05:38:43;;;;;;;1.42;1.15;;;14.40;99.90;;;;;;4946808;28;20041;-68
2024/04/06 05:41:09;;;;;;;2.45;1.05;;;14.50;99.90;;;;;;4948206;28;20059;-68
2024/04/06 05:43:35;;;;;;;2.05;1.20;;;14.50;99.90;;;;;;4949256;28;20035;-66
2024/04/06 05:46:03;;;;;;;2.50;1.30;;;14.60;99.90;;;;;;4946290;28;20042;-69
2024/04/06 05:48:29;;;;;;;2.65;1.20;;;14.60;99.90;;;;;;4947188;28;20041;-67
2024/04/06 05:50:57;;;;;;;1.30;1.20;;;14.70;99.90;;;;;;4949328;28;20055;-67
2024/04/06 05:53:23;;;;;;;2.65;1.30;;;14.80;99.90;;;;;;4947678;28;20038;-66
2024/04/06 05:55:49;;;;;;;2.67;1.30;;;14.80;99.90;;;;;;4949496;28;20031;-66
2024/04/06 05:58:14;;;;;;;2.30;1.20;;;14.90;99.90;;;;;;4947529;28;20384;-66
2024/04/06 06:00:40;;;;;;;2.42;1.00;;;15.00;99.90;;;;;;4948730;28;20035;-66
2024/04/06 06:03:06;;;;;;;3.22;1.10;;;15.10;99.90;;;;;;4948244;28;20608;-66
2024/04/06 06:05:32;;;;;;;2.08;0.90;;;15.10;99.90;;;;;;4949025;28;20066;-66
2024/04/06 06:07:57;;;;;;;1.40;0.95;;;15.20;99.90;;;;;;4946650;28;20059;-66
2024/04/06 06:10:23;;;;;;;1.15;0.95;;;15.20;99.90;;;;;;4948529;28;20039;-66
2024/04/06 06:12:49;;;;;;;1.65;1.10;;;15.30;99.90;;;;;;4945653;28;20113;-67
2024/04/06 06:15:15;;;;;;;1.73;1.10;;;15.40;99.90;;;;;;4949102;28;20046;-66
2024/04/06 06:17:41;;;;;;;3.95;1.67;;;15.40;99.90;;;;;;4947712;28;20031;-66
2024/04/06 06:20:07;;;;;;;2.67;1.13;;;15.60;99.90;;;;;;4948410;28;20039;-67
2024/04/06 06:22:33;;;;;;;1.52;1.15;;;15.60;99.90;;;;;;4947355;28;20026;-67
2024/04/06 06:25:00;;;;;;;1.73;1.00;;;15.70;99.90;;;;;;4949387;28;20035;-66
2024/04/06 06:27:25;;;;;;;2.88;1.17;;;15.70;99.90;;;;;;4947976;28;20059;-67
2024/04/06 06:29:52;;;;;;;2.30;1.30;;;15.80;99.90;;;;;;4948248;28;20842;-67
2024/04/06 06:32:18;;;;;;;2.20;1.00;;;15.90;99.90;;;;;;4945690;28;20027;-67
2024/04/06 06:34:44;;;;;;;2.58;1.00;;;15.90;99.90;;;;;;4947221;28;20534;-66
2024/04/06 06:37:10;;;;;;;0.90;0.85;;;16.00;99.90;;;;;;4945470;28;20043;-66
2024/04/06 06:39:36;;;;;;;1.65;1.00;;;16.00;99.90;;;;;;4947292;28;20062;-66
2024/04/06 06:42:02;;;;;;;2.47;1.20;;;16.20;99.90;;;;;;4946867;28;20037;-66
2024/04/06 06:44:28;;;;;;;1.63;1.10;;;16.60;99.90;;;;;;4947440;28;20050;-69
2024/04/06 06:46:54;;;;;;;1.40;0.90;;;16.90;99.90;;;;;;4947651;28;20058;-67
2024/04/06 06:49:20;;;;;;;3.25;1.13;;;17.60;99.90;;;;;;4947036;28;20676;-67
2024/04/06 06:51:46;;;;;;;3.55;0.93;;;18.30;99.90;;;;;;4947816;28;20043;-66
2024/04/06 06:54:12;;;;;;;4.18;1.15;;;18.70;99.90;;;;;;4947367;28;20122;-66
2024/04/06 06:56:38;;;;;;;1.33;0.85;;;18.80;99.90;;;;;;4946406;28;20074;-67
2024/04/06 06:59:04;;;;;;;5.07;1.75;;;18.80;99.90;;;;;;4947046;28;20495;-66
2024/04/06 07:01:30;;;;;;;3.47;1.10;;;18.80;99.90;;;;;;4948081;28;20047;-66
2024/04/06 07:03:56;;;;;;;2.70;1.30;;;19.00;99.90;;;;;;4946576;28;20167;-66
2024/04/06 07:06:22;;;;;;;3.13;0.93;;;19.30;99.90;;;;;;4948501;28;20031;-66
2024/04/06 07:08:48;;;;;;;2.40;0.90;;;19.50;99.90;;;;;;4947439;28;20102;-66
2024/04/06 07:11:14;;;;;;;5.63;1.00;;;19.80;99.90;;;;;;4947907;28;20537;-67
2024/04/06 07:13:40;;;;;;;4.88;1.25;;;20.30;99.90;;;;;;4947735;28;20031;-67
2024/04/06 07:16:07;;;;;;;3.60;1.10;;;20.80;99.90;;;;;;4948401;28;20660;-66
2024/04/06 07:18:34;;;;;;;1.63;0.95;;;21.40;99.90;;;;;;4945727;28;20114;-66
2024/04/06 07:21:00;;;;;;;5.57;0.90;;;21.90;99.90;;;;;;4946794;28;20604;-66
2024/04/06 07:23:26;;;;;;;2.30;0.80;;;22.40;99.40;;;;;;4948433;28;20031;-67
2024/04/06 07:25:53;;;;;;;3.42;1.08;;;22.70;98.50;;;;;;4947363;28;20759;-66
2024/04/06 07:28:19;;;;;;;1.77;0.80;;;22.90;98.20;;;;;;4947031;28;20086;-66
2024/04/06 07:30:46;;;;;;;4.78;1.27;;;22.90;97.80;;;;;;4946154;28;20058;-67
2024/04/06 07:33:12;;;;;;;1.88;1.02;;;22.90;98.20;;;;;;4947380;28;20035;-66
2024/04/06 07:35:38;;;;;;;2.10;0.90;;;22.50;97.80;;;;;;4947853;28;20122;-66
2024/04/06 07:38:04;;;;;;;2.83;0.80;;;22.20;98.50;;;;;;4944799;28;20690;-66
2024/04/06 07:40:30;;;;;;;4.47;0.90;;;22.20;98.80;;;;;;4947633;28;20035;-67
2024/04/06 07:42:56;;;;;;;2.90;0.88;;;22.20;98.30;;;;;;4946858;28;20027;-67
2024/04/06 07:45:22;;;;;;;1.88;0.98;;;22.10;98.80;;;;;;4947443;28;20031;-67
2024/04/06 07:47:48;;;;;;;1.77;0.88;;;22.00;99.00;;;;;;4947532;28;20039;-67
2024/04/06 07:50:15;;;;;;;2.83;1.10;;;22.00;99.00;;;;;;4950822;28;20376;-67
2024/04/06 07:52:41;;;;;;;1.52;0.98;;;22.00;98.80;;;;;;4950924;28;20043;-67
2024/04/06 07:55:07;;;;;;;3.53;0.93;;;22.20;98.30;;;;;;4950718;28;20059;-67
2024/04/06 07:57:33;;;;;;;1.73;0.85;;;22.30;99.00;;;;;;4949890;28;20533;-67
2024/04/06 08:00:01;;;;;;;3.17;0.93;;;22.60;97.90;;;;;;4949947;28;20416;-66
2024/04/06 08:02:28;;;;;;;1.55;0.85;;;22.80;98.00;;;;;;4948601;28;20031;-66
2024/04/06 08:04:56;;;;;;;4.35;0.95;;;23.00;97.80;;;;;;4949175;28;20031;-67
2024/04/06 08:07:22;;;;;;;2.03;0.93;;;23.00;97.40;;;;;;4948779;28;20114;-66
2024/04/06 08:09:48;;;;;;;2.67;0.98;;;23.10;97.50;;;;;;4949230;28;20976;-67
2024/04/06 08:12:14;;;;;;;4.50;1.10;;;23.50;96.20;;;;;;4947549;28;20031;-67
2024/04/06 08:14:40;;;;;;;0.95;0.80;;;23.70;96.30;;;;;;4950604;28;20118;-66
2024/04/06 08:17:06;;;;;;;5.97;0.98;;;23.60;96.10;;;;;;4950991;28;20034;-66
2024/04/06 08:19:31;;;;;;;1.58;0.70;;;23.30;96.70;;;;;;4950468;28;20632;-67
2024/04/06 08:21:57;;;;;;;4.22;1.15;;;23.10;96.80;;;;;;4949414;28;20166;-66
2024/04/06 08:24:23;;;;;;;1.25;0.90;;;22.90;96.20;;;;;;4950022;28;20027;-66
2024/04/06 08:26:49;;;;;;;0.80;0.80;;;22.70;96.90;;;;;;4950935;28;20050;-67
2024/04/06 08:29:15;;;;;;;2.15;0.80;;;22.40;96.90;;;;;;4951384;28;20042;-67
2024/04/06 08:31:41;;;;;;;6.18;0.80;;;22.30;97.20;;;;;;4950524;28;20043;-67
2024/04/06 08:34:07;;;;;;;3.15;0.80;;;22.20;97.80;;;;;;4949795;28;20109;-67
2024/04/06 08:36:34;;;;;;;2.28;0.60;;;22.20;98.10;;;;;;4950530;28;20039;-67
2024/04/06 08:38:59;;;;;;;0.98;0.73;;;22.30;97.80;;;;;;4949288;28;20028;-67
2024/04/06 08:41:27;;;;;;;0.70;0.70;;;22.20;97.60;;;;;;4950302;28;20880;-66
2024/04/06 08:43:55;;;;;;;1.63;0.90;;;22.20;98.00;;;;;;4949706;28;20038;-67
2024/04/06 08:46:22;;;;;;;6.72;1.20;;;22.60;98.40;;;;;;4950168;28;20073;-67
2024/04/06 08:48:49;;;;;;;2.45;0.88;;;22.90;97.00;;;;;;4948855;28;20154;-67
2024/04/06 08:51:17;;;;;;;2.55;1.02;;;23.00;97.30;;;;;;4949663;28;20481;-67
2024/04/06 08:53:43;;;;;;;4.00;1.30;;;23.50;97.30;;;;;;4950310;28;20436;-67
2024/04/06 08:56:12;;;;;;;4.25;0.60;;;23.60;96.30;;;;;;4949867;28;20106;-67
2024/04/06 08:58:38;;;;;;;2.58;0.80;;;23.80;95.50;;;;;;4949374;28;20826;-67
2024/04/06 09:01:05;;;;;;;2.63;1.08;;;23.70;95.30;;;;;;4949904;28;20038;-66
2024/04/06 09:03:31;;;;;;;2.63;0.82;;;23.60;96.10;;;;;;4947493;28;20034;-66
2024/04/06 09:05:58;;;;;;;2.13;0.80;;;23.70;96.20;;;;;;4949876;28;20746;-67
2024/04/06 09:08:24;;;;;;;3.45;1.00;;;24.10;96.80;;;;;;4948353;28;20086;-67
2024/04/06 09:10:57;;;;;;;1.77;0.80;;;24.80;94.90;;;;;;4949218;28;20030;-67
2024/04/06 09:13:24;;;;;;;3.40;0.77;;;25.50;93.30;;;;;;4947830;28;20384;-67
2024/04/06 09:15:50;;;;;;;3.03;0.95;;;25.70;92.30;;;;;;4947652;28;20026;-67
2024/04/06 09:18:17;;;;;;;1.73;0.63;;;25.50;92.20;;;;;;4949955;28;20118;-66
2024/04/06 09:20:49;;;;;;;1.60;0.80;;;25.20;92.00;;;;;;4948271;28;20054;-66
2024/04/06 09:23:15;;;;;;;1.25;0.90;;;24.80;93.00;;;;;;4950733;28;20024;-66
2024/04/06 09:25:41;;;;;;;1.33;0.68;;;24.50;92.90;;;;;;4948957;28;20054;-66
2024/04/06 09:28:10;;;;;;;3.08;1.08;;;24.10;93.10;;;;;;4949715;28;20081;-66
2024/04/06 09:30:43;;;;;;;3.38;0.90;;;23.70;94.10;;;;;;4947888;28;20028;-66
2024/04/06 09:33:11;;;;;;;2.35;1.00;;;23.50;93.80;;;;;;4949125;28;20467;-66
2024/04/06 09:35:40;;;;;;;2.35;1.05;;;23.60;94.40;;;;;;4960412;28;20547;-66
2024/04/06 09:38:13;;;;;;;3.70;0.80;;;23.80;94.00;;;;;;4951052;28;20034;-66
2024/04/06 09:40:43;;;;;;;1.83;1.05;;;23.80;93.50;;;;;;4947301;28;20097;-66
2024/04/06 09:43:09;;;;;;;2.25;0.95;;;23.90;94.90;;;;;;4949400;28;20062;-67
2024/04/06 09:45:35;;;;;;;4.22;1.00;;;24.10;93.70;;;;;;4948861;28;20061;-67
2024/04/06 09:48:02;;;;;;;2.15;0.80;;;23.90;93.90;;;;;;4947430;28;20035;-66
2024/04/06 09:50:32;;;;;;;1.58;0.85;;;23.80;93.50;;;;;;4946256;28;20479;-66
2024/04/06 09:52:59;;;;;;;2.47;0.90;;;23.70;93.60;;;;;;4936557;28;20107;-67
2024/04/06 09:55:28;;;;;;;1.38;0.75;;;23.50;93.70;;;;;;4943910;28;20069;-67
2024/04/06 09:57:55;;;;;;;3.15;1.10;;;23.60;94.30;;;;;;4947958;28;20083;-66
2024/04/06 10:00:21;;;;;;;1.73;1.00;;;23.90;94.10;;;;;;4947665;28;20069;-66
2024/04/06 10:02:50;;;;;;;3.60;0.85;;;23.90;93.20;;;;;;4949674;28;20121;-66
2024/04/06 10:05:16;;;;;;;2.72;0.50;;;24.10;93.90;;;;;;4948290;28;20045;-66
2024/04/06 10:07:49;;;;;;;2.55;0.50;;;24.30;92.50;;;;;;4947574;28;20023;-66
2024/04/06 10:10:16;;;;;;;1.63;0.60;;;24.50;92.00;;;;;;4949186;28;20031;-66
2024/04/06 10:12:43;;;;;;;3.33;0.80;;;24.40;93.20;;;;;;4948192;28;20118;-66
2024/04/06 10:15:17;;;;;;;1.42;1.00;;;24.40;92.80;;;;;;4949718;28;21377;-67
2024/04/06 10:17:47;;;;;;;2.60;0.82;;;24.60;92.10;;;;;;4948419;28;20860;-66
2024/04/06 10:20:16;;;;;;;2.28;0.98;;;24.90;91.30;;;;;;4949064;28;20039;-67
2024/04/06 10:22:53;;;;;;;3.50;0.70;;;24.70;90.30;;;;;;4947718;28;20027;-66
2024/04/06 10:25:29;;;;;;;2.00;0.70;;;24.50;90.40;;;;;;4947321;28;20074;-66
2024/04/06 10:28:04;;;;;;;1.77;0.75;;;24.80;90.70;;;;;;4946200;28;20505;-66
2024/04/06 10:30:32;;;;;;;1.20;0.65;;;24.90;90.90;;;;;;4949154;28;20059;-66
2024/04/06 10:32:58;;;;;;;0.95;0.52;;;24.80;90.60;;;;;;4946892;28;20122;-66
2024/04/06 10:35:26;;;;;;;2.80;0.60;;;24.90;90.10;;;;;;4949276;28;20149;-66
2024/04/06 10:37:52;;;;;;;3.40;1.25;;;25.20;90.80;;;;;;4948686;28;20054;-66
2024/04/06 10:40:22;;;;;;;1.17;0.50;;;25.30;90.00;;;;;;4949002;28;20592;-66
2024/04/06 10:42:49;;;;;;;2.60;0.82;;;25.20;86.40;;;;;;4947996;28;20039;-66
2024/04/06 10:45:16;;;;;;;3.65;0.90;;;25.10;87.40;;;;;;4947456;28;20047;-66
2024/04/06 10:47:43;;;;;;;2.08;0.82;;;24.90;88.40;;;;;;4949344;28;20031;-68
2024/04/06 10:50:09;;;;;;;3.80;1.92;;;24.80;88.90;;;;;;4949116;28;20387;-66
2024/04/06 10:52:39;;;;;;;17.05;8.73;;;24.60;89.20;;;;;;4948249;28;20082;-65
2024/04/06 10:55:09;;;;;;;17.13;8.82;;;24.60;89.70;;;;;;4947779;28;20388;-65
2024/04/06 10:57:38;;;;;;;5.55;1.75;;;24.80;88.90;;;;;;4947533;28;20513;-66
2024/04/06 11:00:08;;;;;;;14.63;7.22;;;25.00;86.90;;;;;;4947660;28;20527;-65
2024/04/06 11:02:36;;;;;;;2.10;0.65;;;25.00;87.40;;;;;;4946212;28;20068;-65
2024/04/06 11:05:02;;;;;;;15.57;8.88;;;25.10;84.90;;;;;;4947887;28;20122;-65
2024/04/06 11:07:28;;;;;;;13.48;7.43;;;25.30;86.40;;;;;;4947202;28;20488;-66
2024/04/06 11:09:53;;;;;;;6.82;4.25;;;25.70;86.70;;;;;;4947290;28;20035;-65
2024/04/06 11:12:19;;;;;;;5.68;2.78;;;25.90;85.40;;;;;;4946725;28;20041;-65
2024/04/06 11:14:49;;;;;;;8.82;2.58;;;25.50;86.40;;;;;;4947993;28;20068;-66
2024/04/06 11:17:16;;;;;;;3.63;1.23;;;25.00;85.10;;;;;;4948713;28;20038;-65
2024/04/06 11:19:42;;;;;;;2.38;1.45;;;24.80;85.80;;;;;;4948368;28;20110;-66
2024/04/06 11:22:08;;;;;;;3.17;1.30;;;24.50;86.60;;;;;;4948381;28;20277;-66
2024/04/06 11:24:33;;;;;;;2.97;1.20;;;24.40;86.40;;;;;;4949698;28;20033;-65
2024/04/06 11:27:09;;;;;;;3.80;0.82;;;24.30;87.10;;;;;;4951382;28;20037;-65
2024/04/06 11:29:35;;;;;;;1.25;0.75;;;24.30;87.30;;;;;;4949933;28;20084;-65
2024/04/06 11:32:01;;;;;;;2.13;1.08;;;24.30;87.50;;;;;;4950955;28;20035;-65
2024/04/06 11:34:27;;;;;;;2.90;1.00;;;24.30;87.00;;;;;;4952017;28;20692;-65
2024/04/06 11:36:53;;;;;;;2.58;1.00;;;24.30;86.80;;;;;;4950199;28;20044;-65
2024/04/06 11:39:19;;;;;;;1.80;0.73;;;24.20;87.40;;;;;;4951623;28;20114;-65
2024/04/06 11:41:45;;;;;;;0.90;0.50;;;24.10;87.10;;;;;;4949371;28;20027;-65
2024/04/06 11:44:10;;;;;;;2.63;0.60;;;23.90;87.30;;;;;;4951873;28;20114;-64
2024/04/06 11:46:36;;;;;;;1.33;0.60;;;23.80;88.00;;;;;;4950646;28;20122;-65
2024/04/06 11:49:05;;;;;;;0.32;0.30;;;23.70;87.90;;;;;;4950946;28;20038;-65
2024/04/06 11:51:31;;;;;;;0.80;0.73;;;23.70;88.40;;;;;;4950516;28;20035;-65
2024/04/06 11:53:56;;;;;;;1.15;0.60;;;23.70;89.20;;;;;;4951122;28;20154;-66
2024/04/06 11:56:22;;;;;;;4.13;0.50;;;23.70;89.40;;;;;;4951298;28;20034;-66
2024/04/06 11:58:50;;;;;;;6.20;2.50;;;23.70;88.60;;;;;;4951860;28;20046;-65
2024/04/06 12:01:17;;;;;;;3.00;1.23;;;23.80;89.40;;;;;;4951457;28;20638;-66
2024/04/06 12:03:42;;;;;;;2.28;1.15;;;23.90;88.10;;;;;;4950521;28;20050;-66
2024/04/06 12:06:11;;;;;;;4.03;2.40;;;23.90;86.70;;;;;;4950707;28;20035;-65
2024/04/06 12:08:37;;;;;;;3.78;2.30;;;23.90;88.00;;;;;;4950052;28;20541;-66
2024/04/06 12:11:03;;;;;;;3.72;2.33;;;23.80;88.20;;;;;;4951747;28;20035;-65
2024/04/06 12:13:29;;;;;;;2.28;1.58;;;23.90;89.10;;;;;;4950011;28;20122;-66
2024/04/06 12:15:55;;;;;;;7.10;3.85;;;23.90;88.20;;;;;;4951131;28;20125;-65
2024/04/06 12:18:20;;;;;;;2.22;1.33;;;23.80;87.80;;;;;;4952402;28;20035;-66
2024/04/06 12:20:46;;;;;;;1.98;1.10;;;23.80;86.70;;;;;;4950181;28;20085;-65
2024/04/06 12:23:12;;;;;;;2.22;1.30;;;23.60;86.50;;;;;;4951536;28;20039;-66
2024/04/06 12:25:38;;;;;;;1.60;0.73;;;23.60;87.30;;;;;;4950850;28;20406;-65
2024/04/06 12:28:04;;;;;;;1.35;0.90;;;23.60;87.20;;;;;;4951181;28;20274;-65
2024/04/06 12:30:29;;;;;;;2.40;0.60;;;23.50;87.50;;;;;;4950051;28;20035;-66
2024/04/06 12:32:55;;;;;;;1.00;0.85;;;23.50;86.70;;;;;;4950982;28;20042;-66
2024/04/06 12:35:21;;;;;;;0.88;0.60;;;23.60;87.60;;;;;;4948922;28;20031;-65
2024/04/06 12:37:47;;;;;;;0.73;0.47;;;23.60;88.10;;;;;;4949248;28;20213;-66
2024/04/06 12:40:13;;;;;;;0.93;0.50;;;23.70;86.50;;;;;;4950508;28;20547;-65
2024/04/06 12:42:39;;;;;;;1.30;0.73;;;23.80;86.10;;;;;;4950741;28;20035;-65